LEZL/SVQ METAR and TAF weather

Enter ICAO airport designator
Station Type Date Time Source
LEZL METAR 2022/06/28 08:30 UTC NOAA

LEZL 280830Z 06004KT 360V110 CAVOK 24/10 Q1017 NOSIG


Station Type Date Time Source
LEZL Decoded METAR 2022/06/28 08:30 UTC NOAA

Sevilla / San Pablo, Spain (LEZL) 37-25N 005-54W 31M
Jun 28, 2022 - 04:30 AM EDT / 2022.06.28 0830 UTC
Wind: from the ENE (060 degrees) at 5 MPH (4 KT) (direction variable):0
Visibility: greater than 7 mile(s):0
Temperature: 75 F (24 C)
Dew Point: 50 F (10 C)
Relative Humidity: 41%
Pressure (altimeter): 30.03 in. Hg (1017 hPa)
ob: LEZL 280830Z 06004KT 360V110 CAVOK 24/10 Q1017 NOSIG
cycle: 8

Station Type Date Time Source
LEZL TAF 2022/06/28 09:27 UTC NOAA

TAF LEZL 280800Z 2809/2909 07004KT CAVOK TX35/2815Z TN17/2905Z
BECMG 2817/2819 23010KT

Example: see airport list